createdAt,value
2023-04-09T00:00:14.984Z,31.30
2023-04-09T00:02:18.696Z,32.17
2023-04-09T00:04:22.546Z,28.37
2023-04-09T00:06:26.979Z,29.67
2023-04-09T00:08:29.870Z,30.30
2023-04-09T00:10:32.823Z,36.07
2023-04-09T00:12:36.136Z,36.80
2023-04-09T00:14:39.082Z,33.57
2023-04-09T00:16:43.488Z,30.60
2023-04-09T00:18:46.423Z,29.63
2023-04-09T00:20:49.421Z,25.80
2023-04-09T00:22:53.228Z,32.70
2023-04-09T00:24:57.575Z,30.13
2023-04-09T00:27:00.723Z,27.53
2023-04-09T00:29:03.925Z,30.10
2023-04-09T00:31:07.296Z,32.93
2023-04-09T00:33:11.588Z,38.83
2023-04-09T00:35:14.753Z,30.53
2023-04-09T00:37:17.838Z,32.03
2023-04-09T00:39:23.357Z,34.40
2023-04-09T00:41:26.654Z,32.30
2023-04-09T00:43:30.379Z,36.17
2023-04-09T00:45:33.422Z,34.53
2023-04-09T00:47:37.413Z,29.60
2023-04-09T00:49:42.473Z,34.93
2023-04-09T00:51:46.307Z,33.73
2023-04-09T00:53:49.293Z,30.33
2023-04-09T00:55:52.589Z,37.73
2023-04-09T00:57:55.571Z,38.23
2023-04-09T00:59:58.660Z,32.27
2023-04-09T01:02:01.850Z,34.73
2023-04-09T01:04:05.417Z,31.90
2023-04-09T01:06:13.571Z,29.07
2023-04-09T01:08:21.441Z,28.83
2023-04-09T01:10:29.726Z,30.20
2023-04-09T01:16:08.318Z,27.00
2023-04-09T01:18:15.055Z,34.23
2023-04-09T01:20:27.691Z,30.70
2023-04-09T01:22:44.336Z,32.13
2023-04-09T01:24:58.514Z,28.93
2023-04-09T01:27:08.943Z,32.00
2023-04-09T01:29:39.604Z,31.90
2023-04-09T01:31:44.200Z,37.13
2023-04-09T01:33:47.674Z,32.73
2023-04-09T01:35:51.147Z,30.43
2023-04-09T01:37:55.710Z,30.47
2023-04-09T01:39:59.187Z,27.57
2023-04-09T01:42:03.831Z,35.90
2023-04-09T01:44:07.260Z,31.53
2023-04-09T01:46:12.801Z,32.83
2023-04-09T01:48:16.401Z,36.03
2023-04-09T01:50:19.918Z,36.73
2023-04-09T01:52:23.054Z,33.00
2023-04-09T01:54:26.217Z,34.60
2023-04-09T01:56:29.558Z,44.33
2023-04-09T01:58:34.155Z,33.43
2023-04-09T02:00:40.731Z,33.97
2023-04-09T02:02:50.693Z,28.93
2023-04-09T02:04:54.403Z,31.30
2023-04-09T02:07:05.215Z,30.03
2023-04-09T02:09:10.109Z,30.40
2023-04-09T02:11:12.951Z,29.43
2023-04-09T02:13:17.721Z,30.90
2023-04-09T02:15:20.957Z,31.30
2023-04-09T02:17:24.141Z,31.27
2023-04-09T02:19:40.074Z,32.87
2023-04-09T02:21:45.674Z,31.67
2023-04-09T02:23:48.686Z,44.67
2023-04-09T02:25:52.882Z,38.77
2023-04-09T02:27:55.822Z,40.40
2023-04-09T02:29:58.785Z,38.53
2023-04-09T02:32:01.824Z,33.90
2023-04-09T02:34:05.042Z,29.40
2023-04-09T02:36:12.383Z,39.50
2023-04-09T02:38:16.113Z,45.93
2023-04-09T02:40:19.114Z,42.30
2023-04-09T02:42:21.973Z,38.47
2023-04-09T02:44:24.961Z,42.43
2023-04-09T02:46:27.959Z,37.53
2023-04-09T02:48:30.975Z,42.73
2023-04-09T02:50:33.876Z,41.20
2023-04-09T02:52:38.248Z,43.07
2023-04-09T02:54:41.759Z,36.13
2023-04-09T02:56:45.128Z,34.37
2023-04-09T02:58:49.529Z,43.80
2023-04-09T03:00:52.685Z,35.47
2023-04-09T03:02:55.994Z,38.27
2023-04-09T03:04:59.219Z,48.10
2023-04-09T03:07:02.148Z,42.47
2023-04-09T03:09:06.576Z,43.40
2023-04-09T03:11:09.814Z,37.37
2023-04-09T03:13:12.671Z,69.00
2023-04-09T03:15:15.730Z,65.27
2023-04-09T03:17:18.720Z,74.30
2023-04-09T03:19:22.789Z,59.47
2023-04-09T03:21:27.664Z,45.33
2023-04-09T03:23:34.835Z,66.07
2023-04-09T03:25:39.931Z,69.27
2023-04-09T03:27:52.341Z,66.37
2023-04-09T03:30:03.821Z,61.23
2023-04-09T03:32:16.395Z,54.53
2023-04-09T03:34:20.800Z,59.17
2023-04-09T03:36:28.837Z,65.93
2023-04-09T03:38:39.265Z,62.17
2023-04-09T03:40:49.417Z,56.90
2023-04-09T03:42:52.591Z,50.90
2023-04-09T03:44:56.102Z,53.53
2023-04-09T03:47:05.758Z,70.03
2023-04-09T03:49:10.244Z,64.70
2023-04-09T03:51:17.688Z,75.17
2023-04-09T03:53:26.811Z,81.30
2023-04-09T03:55:35.842Z,100.73
2023-04-09T03:57:42.919Z,101.03
2023-04-09T03:59:50.425Z,98.87
2023-04-09T04:01:57.004Z,102.27
2023-04-09T04:04:00.238Z,110.77
2023-04-09T04:06:17.124Z,91.87
2023-04-09T04:08:30.960Z,104.33
2023-04-09T04:10:36.106Z,89.87
2023-04-09T04:12:40.239Z,71.53
2023-04-09T04:14:49.892Z,69.30
2023-04-09T04:17:02.587Z,63.90
2023-04-09T04:19:06.703Z,71.93
2023-04-09T04:21:17.931Z,60.80
2023-04-09T04:23:28.250Z,61.40
2023-04-09T04:25:41.998Z,50.07
2023-04-09T04:27:48.307Z,49.40
2023-04-09T04:29:55.172Z,45.70
2023-04-09T04:32:11.081Z,51.00
2023-04-09T04:34:14.454Z,52.37
2023-04-09T04:36:21.115Z,44.93
2023-04-09T04:38:27.153Z,43.70
2023-04-09T04:40:30.946Z,43.33
2023-04-09T04:42:37.501Z,44.23
2023-04-09T04:44:46.511Z,41.30
2023-04-09T04:47:10.574Z,41.23
2023-04-09T04:49:13.497Z,46.50
2023-04-09T04:51:22.324Z,37.90
2023-04-09T04:53:44.966Z,36.37
2023-04-09T04:55:50.087Z,38.10
2023-04-09T04:57:58.806Z,37.93
2023-04-09T05:00:05.104Z,38.27
2023-04-09T05:02:08.196Z,38.13
2023-04-09T05:04:30.513Z,36.33
2023-04-09T05:06:34.676Z,30.30
2023-04-09T05:08:42.287Z,29.03
2023-04-09T05:10:46.870Z,31.67
2023-04-09T05:15:08.033Z,32.87
2023-04-09T05:17:13.290Z,31.37
2023-04-09T05:19:19.625Z,37.43
2023-04-09T05:21:24.581Z,32.57
2023-04-09T05:23:30.386Z,32.43
2023-04-09T05:25:33.292Z,33.33
2023-04-09T05:27:38.060Z,33.03
2023-04-09T05:29:41.591Z,30.20
2023-04-09T05:31:46.276Z,34.03
2023-04-09T05:34:00.306Z,31.90
2023-04-09T05:36:17.070Z,30.37
2023-04-09T05:38:21.446Z,29.13
2023-04-09T05:40:31.719Z,31.90
2023-04-09T05:42:35.257Z,29.97
2023-04-09T05:44:53.295Z,31.17
2023-04-09T05:46:57.987Z,31.93
2023-04-09T05:49:07.695Z,28.67
2023-04-09T05:51:12.549Z,27.83
2023-04-09T05:53:17.934Z,33.57
2023-04-09T05:55:22.799Z,29.67
2023-04-09T05:57:31.977Z,31.00
2023-04-09T05:59:40.258Z,28.53
2023-04-09T06:01:43.388Z,30.30
2023-04-09T06:03:46.597Z,22.73
2023-04-09T06:05:50.024Z,28.67
2023-04-09T06:07:53.730Z,22.37
2023-04-09T06:09:56.902Z,21.47
2023-04-09T06:12:01.275Z,23.40
2023-04-09T06:14:04.458Z,21.00
2023-04-09T06:16:08.713Z,28.43
2023-04-09T06:18:11.971Z,24.73
2023-04-09T06:20:15.466Z,21.70
2023-04-09T06:22:18.542Z,26.70
2023-04-09T06:24:21.844Z,19.60
2023-04-09T06:26:25.040Z,23.80
2023-04-09T06:28:30.487Z,23.03
2023-04-09T06:30:33.930Z,21.77
2023-04-09T06:32:43.650Z,17.23
2023-04-09T06:34:50.317Z,17.90
2023-04-09T06:36:53.546Z,19.47
2023-04-09T06:38:56.573Z,20.03
2023-04-09T06:40:59.701Z,21.37
2023-04-09T06:43:02.759Z,20.83
2023-04-09T06:45:14.923Z,22.77
2023-04-09T06:47:18.062Z,27.52
2023-04-09T06:49:21.045Z,19.75
2023-04-09T06:51:24.662Z,20.95
2023-04-09T06:53:28.070Z,18.98
2023-04-09T06:55:30.964Z,19.02
2023-04-09T06:57:34.163Z,19.90
2023-04-09T06:59:37.346Z,19.55
2023-04-09T07:01:42.409Z,23.42
2023-04-09T07:03:45.935Z,22.23
2023-04-09T07:05:48.933Z,23.73
2023-04-09T07:07:51.964Z,27.20
2023-04-09T07:09:55.074Z,24.40
2023-04-09T07:11:58.146Z,25.75
2023-04-09T07:14:01.051Z,25.17
2023-04-09T07:16:04.254Z,22.77
2023-04-09T07:18:08.738Z,19.00
2023-04-09T07:20:12.812Z,20.42
2023-04-09T07:22:16.041Z,18.65
2023-04-09T07:24:19.554Z,17.20
2023-04-09T07:26:22.940Z,17.38
2023-04-09T07:28:26.262Z,16.75
2023-04-09T07:30:29.233Z,15.63
2023-04-09T07:32:32.253Z,19.77
2023-04-09T07:34:37.600Z,18.00
2023-04-09T07:36:41.368Z,16.65
2023-04-09T07:38:45.710Z,19.13
2023-04-09T07:40:48.901Z,17.15
2023-04-09T07:42:53.517Z,17.00
2023-04-09T07:44:56.673Z,17.45
2023-04-09T07:46:59.616Z,15.50
2023-04-09T07:49:02.513Z,19.77
2023-04-09T07:51:07.060Z,16.95
2023-04-09T07:53:10.237Z,17.77
2023-04-09T07:55:13.308Z,14.82
2023-04-09T07:57:16.383Z,16.52
2023-04-09T07:59:19.517Z,17.50
2023-04-09T08:01:24.823Z,17.52
2023-04-09T08:03:27.969Z,17.30
2023-04-09T08:05:32.276Z,16.40
2023-04-09T08:07:36.844Z,19.17
2023-04-09T08:09:39.924Z,16.13
2023-04-09T08:11:42.873Z,18.88
2023-04-09T08:13:45.943Z,19.20
2023-04-09T08:15:48.999Z,16.02
2023-04-09T08:17:52.387Z,15.80
2023-04-09T08:19:55.296Z,14.45
2023-04-09T08:21:59.372Z,16.42
2023-04-09T08:24:05.276Z,15.65
2023-04-09T08:26:08.177Z,18.20
2023-04-09T08:28:11.312Z,16.85
2023-04-09T08:30:15.127Z,17.02
2023-04-09T08:32:19.183Z,18.17
2023-04-09T08:34:22.176Z,19.17
2023-04-09T08:36:26.392Z,18.20
2023-04-09T08:38:29.461Z,15.70
2023-04-09T08:40:36.802Z,15.70
2023-04-09T08:42:44.239Z,17.15
2023-04-09T08:44:47.427Z,16.98
2023-04-09T08:46:51.202Z,18.25
2023-04-09T08:48:54.671Z,16.75
2023-04-09T08:50:58.008Z,14.65
2023-04-09T08:53:04.037Z,11.70
2023-04-09T08:55:08.769Z,13.90
2023-04-09T08:57:13.109Z,14.75
2023-04-09T08:59:18.094Z,16.10
2023-04-09T09:01:24.762Z,15.57
2023-04-09T09:03:27.753Z,14.10
2023-04-09T09:05:37.363Z,11.80
2023-04-09T09:07:54.130Z,15.18
2023-04-09T09:09:58.717Z,14.43
2023-04-09T09:12:01.828Z,14.65
2023-04-09T09:14:07.660Z,12.93
2023-04-09T09:16:15.146Z,14.68
2023-04-09T09:18:18.882Z,17.27
2023-04-09T09:20:22.961Z,11.57
2023-04-09T09:22:26.807Z,9.60
2023-04-09T09:24:29.836Z,12.35
2023-04-09T09:26:32.841Z,12.00
2023-04-09T09:28:36.483Z,14.43
2023-04-09T09:30:41.674Z,12.27
2023-04-09T09:32:44.709Z,11.88
2023-04-09T09:34:59.500Z,12.07
2023-04-09T09:37:02.426Z,11.05
2023-04-09T09:39:10.348Z,10.70
2023-04-09T09:41:18.036Z,11.38
2023-04-09T09:43:21.513Z,11.77
2023-04-09T09:45:25.699Z,10.57
2023-04-09T09:47:30.484Z,11.15
2023-04-09T09:49:33.471Z,12.00
2023-04-09T09:51:39.739Z,13.43
2023-04-09T09:53:46.626Z,9.75
2023-04-09T09:55:53.965Z,9.38
2023-04-09T09:57:57.861Z,9.77
2023-04-09T10:00:03.038Z,13.07
2023-04-09T10:02:21.935Z,8.30
2023-04-09T10:04:28.828Z,8.38
2023-04-09T10:06:34.160Z,9.80
2023-04-09T10:08:38.460Z,9.32
2023-04-09T10:10:44.038Z,11.52
2023-04-09T10:12:47.224Z,8.63
2023-04-09T10:14:55.123Z,10.25
2023-04-09T10:16:58.793Z,8.63
2023-04-09T10:19:03.164Z,9.63
2023-04-09T10:21:11.518Z,10.23
2023-04-09T10:23:23.442Z,9.88
2023-04-09T10:25:26.549Z,8.10
2023-04-09T10:27:29.577Z,9.40
2023-04-09T10:29:32.847Z,10.30
2023-04-09T10:31:49.969Z,12.15
2023-04-09T10:33:52.889Z,8.30
2023-04-09T10:35:58.501Z,9.63
2023-04-09T10:38:03.365Z,7.47
2023-04-09T10:40:09.609Z,7.78
2023-04-09T10:42:15.754Z,7.45
2023-04-09T10:44:22.596Z,6.55
2023-04-09T10:46:30.006Z,9.93
2023-04-09T10:48:35.025Z,8.23
2023-04-09T10:50:38.691Z,10.38
2023-04-09T10:52:42.274Z,8.93
2023-04-09T10:54:47.721Z,8.48
2023-04-09T10:57:11.297Z,10.18
2023-04-09T10:59:14.269Z,8.65
2023-04-09T11:01:24.240Z,13.35
2023-04-09T11:03:31.462Z,7.45
2023-04-09T11:05:38.120Z,8.32
2023-04-09T11:07:46.189Z,8.77
2023-04-09T11:09:53.025Z,8.98
2023-04-09T11:11:57.597Z,7.88
2023-04-09T11:14:01.701Z,7.93
2023-04-09T11:16:07.530Z,9.93
2023-04-09T11:18:15.729Z,10.27
2023-04-09T11:20:26.634Z,8.73
2023-04-09T11:22:30.306Z,9.88
2023-04-09T11:24:41.771Z,8.57
2023-04-09T11:26:48.811Z,10.48
2023-04-09T11:28:51.891Z,9.80
2023-04-09T11:30:56.613Z,9.23
2023-04-09T11:32:59.640Z,8.10
2023-04-09T11:35:03.550Z,8.48
2023-04-09T11:37:09.317Z,11.45
2023-04-09T11:39:12.257Z,8.32
2023-04-09T11:41:15.258Z,10.00
2023-04-09T11:43:21.166Z,8.55
2023-04-09T11:45:26.604Z,8.50
2023-04-09T11:47:29.643Z,8.90
2023-04-09T11:49:35.008Z,10.70
2023-04-09T11:51:38.759Z,7.28
2023-04-09T11:53:42.083Z,7.70
2023-04-09T11:55:48.420Z,9.60
2023-04-09T11:57:52.880Z,8.15
2023-04-09T11:59:57.577Z,8.00
2023-04-09T12:02:01.827Z,8.43
2023-04-09T12:04:05.712Z,8.63
2023-04-09T12:06:09.261Z,7.90
2023-04-09T12:08:12.244Z,8.00
2023-04-09T12:10:15.549Z,8.82
2023-04-09T12:12:21.938Z,6.90
2023-04-09T12:14:25.356Z,7.28
2023-04-09T12:16:31.486Z,9.18
2023-04-09T12:18:37.510Z,7.85
2023-04-09T12:20:42.632Z,10.55
2023-04-09T12:22:46.204Z,7.20
2023-04-09T12:24:49.275Z,7.47
2023-04-09T12:26:53.546Z,11.20
2023-04-09T12:28:58.640Z,8.23
2023-04-09T12:31:03.451Z,8.15
2023-04-09T12:33:10.256Z,8.30
2023-04-09T12:35:15.494Z,9.18
2023-04-09T12:37:18.615Z,8.30
2023-04-09T12:39:22.176Z,8.93
2023-04-09T12:41:25.497Z,7.28
2023-04-09T12:43:28.478Z,8.25
2023-04-09T12:45:32.864Z,7.40
2023-04-09T12:47:35.806Z,9.90
2023-04-09T12:49:42.171Z,7.57
2023-04-09T12:51:46.020Z,7.95
2023-04-09T12:53:50.737Z,10.02
2023-04-09T12:55:54.184Z,10.68
2023-04-09T12:57:57.556Z,7.68
2023-04-09T13:00:01.329Z,8.55
2023-04-09T13:02:06.175Z,8.90
2023-04-09T13:04:09.663Z,9.20
2023-04-09T13:06:14.703Z,6.30
2023-04-09T13:08:17.724Z,7.93
2023-04-09T13:10:20.865Z,7.57
2023-04-09T13:12:24.313Z,11.50
2023-04-09T13:14:28.454Z,7.47
2023-04-09T13:16:31.521Z,7.97
2023-04-09T13:18:34.876Z,8.23
2023-04-09T13:20:37.826Z,8.32
2023-04-09T13:22:44.419Z,7.28
2023-04-09T13:24:47.889Z,9.50
2023-04-09T13:26:52.393Z,9.23
2023-04-09T13:28:55.291Z,7.88
2023-04-09T13:30:58.414Z,7.15
2023-04-09T13:33:01.939Z,8.23
2023-04-09T13:35:05.518Z,11.70
2023-04-09T13:37:08.519Z,7.57
2023-04-09T13:39:13.119Z,7.10
2023-04-09T13:41:16.441Z,7.60
2023-04-09T13:43:21.024Z,6.60
2023-04-09T13:45:24.329Z,10.13
2023-04-09T13:47:27.573Z,6.88
2023-04-09T13:49:30.935Z,6.68
2023-04-09T13:51:34.983Z,6.68
2023-04-09T13:53:38.148Z,8.75
2023-04-09T13:55:44.157Z,7.28
2023-04-09T13:57:47.561Z,10.35
2023-04-09T13:59:51.301Z,9.55
2023-04-09T14:01:54.456Z,8.32
2023-04-09T14:03:57.787Z,6.85
2023-04-09T14:06:01.846Z,7.82
2023-04-09T14:08:04.992Z,6.75
2023-04-09T14:10:09.510Z,7.03
2023-04-09T14:12:14.380Z,6.93
2023-04-09T14:14:17.742Z,9.40
2023-04-09T14:16:20.889Z,6.35
2023-04-09T14:18:23.952Z,8.05
2023-04-09T14:20:27.320Z,8.43
2023-04-09T14:22:30.515Z,6.60
2023-04-09T14:24:39.657Z,6.70
2023-04-09T14:26:43.154Z,6.10
2023-04-09T14:28:48.046Z,6.72
2023-04-09T14:30:51.246Z,6.20
2023-04-09T14:32:55.518Z,9.15
2023-04-09T14:34:58.527Z,6.38
2023-04-09T14:37:01.679Z,6.18
2023-04-09T14:39:06.069Z,6.93
2023-04-09T14:41:08.963Z,6.78
2023-04-09T14:43:13.367Z,5.63
2023-04-09T14:45:17.876Z,8.48
2023-04-09T14:47:20.864Z,9.35
2023-04-09T14:49:23.903Z,7.35
2023-04-09T14:51:27.466Z,6.95
2023-04-09T14:53:30.412Z,5.85
2023-04-09T14:55:33.337Z,7.15
2023-04-09T14:57:37.618Z,5.60
2023-04-09T14:59:40.508Z,5.72
2023-04-09T15:01:45.092Z,6.88
2023-04-09T15:03:49.551Z,6.45
2023-04-09T15:05:52.803Z,6.47
2023-04-09T15:07:58.400Z,6.85
2023-04-09T15:10:03.494Z,6.85
2023-04-09T15:12:06.756Z,5.78
2023-04-09T15:14:10.853Z,6.45
2023-04-09T15:16:21.877Z,8.30
2023-04-09T15:18:29.394Z,6.43
2023-04-09T15:20:32.745Z,6.90
2023-04-09T15:22:36.956Z,7.82
2023-04-09T15:24:40.142Z,6.43
2023-04-09T15:26:43.485Z,7.82
2023-04-09T15:28:47.045Z,5.63
2023-04-09T15:30:50.455Z,6.55
2023-04-09T15:32:53.758Z,6.97
2023-04-09T15:34:58.283Z,7.63
2023-04-09T15:37:01.342Z,5.50
2023-04-09T15:39:04.835Z,5.20
2023-04-09T15:41:08.241Z,9.13
2023-04-09T15:43:11.458Z,6.00
2023-04-09T15:45:15.724Z,6.70
2023-04-09T15:47:19.085Z,6.05
2023-04-09T15:49:22.893Z,6.07
2023-04-09T15:51:27.759Z,6.90
2023-04-09T15:53:31.276Z,6.28
2023-04-09T15:55:35.169Z,6.68
2023-04-09T15:57:39.799Z,6.85
2023-04-09T15:59:49.701Z,6.10
2023-04-09T16:01:58.295Z,6.45
2023-04-09T16:04:03.926Z,6.68
2023-04-09T16:06:13.191Z,5.63
2023-04-09T16:08:17.884Z,6.10
2023-04-09T16:10:21.380Z,7.30
2023-04-09T16:12:35.664Z,5.57
2023-04-09T16:14:40.467Z,7.03
2023-04-09T16:16:53.857Z,5.45
2023-04-09T16:18:58.584Z,7.25
2023-04-09T16:21:02.025Z,5.95
2023-04-09T16:23:04.905Z,6.10
2023-04-09T16:25:10.371Z,5.78
2023-04-09T16:27:15.625Z,5.60
2023-04-09T16:29:18.913Z,10.13
2023-04-09T16:31:21.835Z,5.35
2023-04-09T16:33:26.279Z,10.40
2023-04-09T16:35:29.504Z,5.88
2023-04-09T16:37:32.669Z,7.88
2023-04-09T16:39:35.900Z,7.15
2023-04-09T16:41:43.123Z,5.78
2023-04-09T16:43:57.106Z,5.38
2023-04-09T16:46:01.799Z,4.90
2023-04-09T16:48:06.307Z,6.18
2023-04-09T16:50:11.889Z,5.75
2023-04-09T16:52:14.789Z,6.30
2023-04-09T16:54:18.775Z,5.05
2023-04-09T16:56:21.861Z,6.50
2023-04-09T16:58:27.918Z,4.95
2023-04-09T17:00:31.613Z,4.95
2023-04-09T17:02:35.145Z,6.63
2023-04-09T17:04:38.307Z,4.55
2023-04-09T17:06:41.524Z,5.30
2023-04-09T17:08:46.578Z,7.00
2023-04-09T17:10:49.547Z,4.20
2023-04-09T17:12:52.513Z,5.35
2023-04-09T17:14:57.955Z,6.00
2023-04-09T17:17:01.993Z,5.75
2023-04-09T17:19:04.992Z,4.30
2023-04-09T17:21:08.140Z,8.60
2023-04-09T17:23:11.263Z,4.68
2023-04-09T17:25:14.372Z,5.38
2023-04-09T17:27:17.528Z,6.38
2023-04-09T17:29:20.601Z,7.97
2023-04-09T17:31:25.463Z,6.05
2023-04-09T17:33:28.613Z,6.85
2023-04-09T17:35:31.639Z,6.75
2023-04-09T17:37:35.971Z,10.85
2023-04-09T17:39:38.887Z,6.97
2023-04-09T17:41:42.543Z,6.40
2023-04-09T17:43:46.224Z,6.80
2023-04-09T17:45:49.442Z,6.07
2023-04-09T17:47:54.204Z,5.88
2023-04-09T17:49:57.471Z,5.27
2023-04-09T17:52:00.817Z,6.47
2023-04-09T17:54:05.679Z,5.00
2023-04-09T17:56:11.104Z,5.87
2023-04-09T17:58:14.200Z,5.03
2023-04-09T18:00:17.493Z,7.80
2023-04-09T18:02:23.214Z,6.67
2023-04-09T18:04:29.037Z,6.53
2023-04-09T18:06:33.622Z,6.80
2023-04-09T18:08:44.950Z,6.83
2023-04-09T18:11:01.676Z,6.33
2023-04-09T18:13:16.742Z,6.63
2023-04-09T18:17:41.884Z,7.93
2023-04-09T18:20:01.794Z,6.90
2023-04-09T18:22:04.833Z,7.83
2023-04-09T18:24:08.395Z,9.53
2023-04-09T18:26:11.475Z,10.30
2023-04-09T18:28:14.418Z,9.00
2023-04-09T18:30:17.680Z,12.27
2023-04-09T18:32:20.754Z,8.40
2023-04-09T18:34:23.984Z,8.07
2023-04-09T18:36:29.273Z,10.20
2023-04-09T18:38:32.165Z,9.67
2023-04-09T18:40:41.900Z,7.83
2023-04-09T18:42:44.981Z,10.93
2023-04-09T18:44:48.003Z,8.77
2023-04-09T18:46:51.323Z,9.73
2023-04-09T18:48:54.511Z,8.03
2023-04-09T18:50:57.735Z,25.40
2023-04-09T18:53:03.446Z,8.87
2023-04-09T18:55:07.175Z,6.70
2023-04-09T18:57:10.447Z,9.70
2023-04-09T18:59:13.568Z,9.90
2023-04-09T19:01:17.577Z,7.97
2023-04-09T19:03:21.024Z,8.70
2023-04-09T19:05:24.368Z,8.30
2023-04-09T19:07:27.889Z,6.27
2023-04-09T19:09:33.049Z,8.27
2023-04-09T19:11:36.472Z,6.40
2023-04-09T19:13:39.851Z,6.90
2023-04-09T19:15:43.360Z,9.00
2023-04-09T19:17:46.414Z,6.90
2023-04-09T19:19:50.593Z,7.30
2023-04-09T19:21:53.744Z,7.43
2023-04-09T19:23:57.050Z,7.50
2023-04-09T19:26:02.008Z,8.70
2023-04-09T19:28:05.672Z,8.40
2023-04-09T19:30:09.517Z,8.73
2023-04-09T19:32:13.478Z,11.17
2023-04-09T19:34:16.649Z,18.17
2023-04-09T19:36:19.706Z,21.20
2023-04-09T19:38:22.694Z,15.10
2023-04-09T19:40:25.863Z,11.47
2023-04-09T19:42:30.290Z,11.23
2023-04-09T19:44:33.426Z,12.30
2023-04-09T19:46:37.924Z,11.60
2023-04-09T19:48:41.882Z,7.93
2023-04-09T19:50:45.431Z,14.00
2023-04-09T19:52:48.609Z,10.07
2023-04-09T19:54:55.439Z,10.40
2023-04-09T19:56:59.870Z,9.93
2023-04-09T19:59:04.697Z,11.03
2023-04-09T20:01:07.962Z,11.40
2023-04-09T20:03:11.317Z,16.63
2023-04-09T20:05:14.519Z,18.00
2023-04-09T20:07:17.645Z,17.90
2023-04-09T20:09:23.839Z,16.90
2023-04-09T20:11:27.104Z,21.60
2023-04-09T20:13:30.370Z,25.80
2023-04-09T20:15:34.706Z,26.40
2023-04-09T20:17:38.528Z,34.97
2023-04-09T20:19:41.753Z,47.87
2023-04-09T20:21:45.337Z,42.70
2023-04-09T20:23:48.662Z,23.83
2023-04-09T20:25:54.775Z,28.27
2023-04-09T20:27:58.482Z,26.90
2023-04-09T20:30:02.144Z,34.63
2023-04-09T20:32:07.390Z,19.93
2023-04-09T20:34:13.042Z,32.77
2023-04-09T20:36:16.729Z,28.07
2023-04-09T20:38:20.762Z,30.57
2023-04-09T20:40:24.539Z,40.23
2023-04-09T20:42:28.004Z,33.70
2023-04-09T20:44:31.782Z,34.83
2023-04-09T20:46:35.233Z,36.90
2023-04-09T20:48:39.576Z,33.37
2023-04-09T20:50:43.033Z,42.53
2023-04-09T20:52:46.028Z,43.90
2023-04-09T20:54:49.264Z,66.57
2023-04-09T20:56:52.827Z,69.87
2023-04-09T20:58:56.028Z,58.53
2023-04-09T21:01:04.998Z,82.47
2023-04-09T21:03:08.737Z,69.90
2023-04-09T21:05:22.470Z,87.47
2023-04-09T21:07:27.017Z,85.70
2023-04-09T21:09:31.507Z,81.50
2023-04-09T21:11:34.977Z,80.10
2023-04-09T21:13:53.099Z,71.57
2023-04-09T21:15:58.037Z,74.10
2023-04-09T21:18:01.731Z,74.43
2023-04-09T21:20:08.819Z,76.37
2023-04-09T21:22:13.193Z,71.20
2023-04-09T21:24:17.156Z,77.20
2023-04-09T21:26:20.379Z,69.43
2023-04-09T21:28:23.446Z,69.77
2023-04-09T21:30:27.881Z,105.67
2023-04-09T21:32:31.348Z,95.63
2023-04-09T21:34:34.351Z,76.03
2023-04-09T21:36:39.287Z,75.43
2023-04-09T21:38:43.755Z,66.80
2023-04-09T21:40:47.161Z,60.13
2023-04-09T21:42:50.268Z,65.53
2023-04-09T21:44:53.231Z,54.43
2023-04-09T21:46:56.393Z,52.83
2023-04-09T21:48:59.856Z,49.70
2023-04-09T21:51:02.902Z,63.37
2023-04-09T21:53:06.085Z,50.00
2023-04-09T21:55:11.294Z,45.80
2023-04-09T21:57:14.191Z,50.90
2023-04-09T21:59:17.135Z,46.10
2023-04-09T22:01:28.589Z,53.10
2023-04-09T22:03:35.133Z,50.37
2023-04-09T22:05:38.417Z,47.23
2023-04-09T22:07:42.972Z,49.27
2023-04-09T22:09:45.921Z,48.73
2023-04-09T22:11:50.693Z,53.27
2023-04-09T22:13:53.569Z,50.73
2023-04-09T22:15:57.217Z,50.87
2023-04-09T22:18:00.240Z,58.53
2023-04-09T22:20:03.362Z,62.10
2023-04-09T22:22:06.300Z,59.60
2023-04-09T22:24:09.307Z,68.93
2023-04-09T22:26:12.381Z,70.53
2023-04-09T22:28:16.613Z,72.27
2023-04-09T22:30:20.762Z,69.13
2023-04-09T22:32:23.809Z,74.50
2023-04-09T22:34:27.342Z,88.13
2023-04-09T22:36:31.191Z,80.73
2023-04-09T22:38:35.396Z,94.60
2023-04-09T22:40:38.427Z,87.30
2023-04-09T22:42:42.090Z,94.33
2023-04-09T22:44:46.428Z,84.37
2023-04-09T22:46:49.842Z,88.37
2023-04-09T22:48:54.106Z,92.93
2023-04-09T22:50:59.088Z,91.47
2023-04-09T22:53:02.163Z,88.47
2023-04-09T22:55:06.515Z,96.30
2023-04-09T22:57:09.562Z,89.03
2023-04-09T22:59:15.255Z,88.30
2023-04-09T23:01:22.140Z,87.80
2023-04-09T23:03:25.766Z,100.73
2023-04-09T23:05:28.944Z,92.77
2023-04-09T23:07:32.170Z,103.60
2023-04-09T23:09:35.420Z,99.27
2023-04-09T23:11:38.910Z,97.97
2023-04-09T23:13:44.900Z,93.30
2023-04-09T23:15:52.512Z,103.00
2023-04-09T23:17:57.230Z,94.33
2023-04-09T23:20:01.274Z,84.10
2023-04-09T23:22:07.499Z,86.10
2023-04-09T23:24:12.233Z,90.07
2023-04-09T23:26:19.224Z,100.80
2023-04-09T23:28:23.162Z,120.57
2023-04-09T23:30:26.432Z,105.03
2023-04-09T23:32:34.100Z,109.43
2023-04-09T23:34:38.761Z,113.93
2023-04-09T23:36:42.028Z,116.13
2023-04-09T23:38:47.515Z,119.47
2023-04-09T23:40:51.320Z,126.43
2023-04-09T23:42:59.101Z,119.70
2023-04-09T23:45:04.404Z,125.47
2023-04-09T23:47:10.603Z,129.47
2023-04-09T23:49:16.070Z,129.73
2023-04-09T23:51:21.153Z,122.57
2023-04-09T23:53:24.381Z,127.07
2023-04-09T23:55:28.941Z,132.30
2023-04-09T23:57:35.323Z,119.90
2023-04-09T23:59:38.341Z,124.77
